Time;durP1;ratioP1;P1;durP2;ratioP2;P2;SDS_P1;SDS_P2;PMS_P1;PMS_P2;Temp;Humidity;BMP_temperature;BMP_pressure;BME280_temperature;BME280_humidity;BME280_pressure;Samples;Min_cycle;Max_cycle;Signal;HPM_P1;HPM_P2
2022/07/27 00:00:32;;;;;;;3.47;2.40;;;;;;;;;;10269025;28;20493;-85
2022/07/27 00:05:34;;;;;;;2.80;2.28;;;;;;;;;;10273635;28;20552;-85
2022/07/27 00:10:38;;;;;;;3.58;2.58;;;;;;;;;;10270665;28;20413;-85
2022/07/27 00:15:40;;;;;;;2.70;2.50;;;;;;;;;;10273642;28;20480;-84
2022/07/27 00:20:42;;;;;;;2.95;2.65;;;;;;;;;;10269262;28;20497;-85
2022/07/27 00:25:45;;;;;;;2.60;2.40;;;;;;;;;;10269524;28;20509;-84
2022/07/27 00:30:47;;;;;;;3.55;2.38;;;;;;;;;;10273038;28;20408;-85
2022/07/27 00:35:48;;;;;;;3.33;2.30;;;;;;;;;;10275436;28;20446;-86
2022/07/27 00:40:52;;;;;;;6.35;2.60;;;;;;;;;;10275505;28;20882;-86
2022/07/27 00:45:54;;;;;;;4.18;2.53;;;;;;;;;;10280563;28;20406;-85
2022/07/27 00:50:57;;;;;;;2.67;2.20;;;;;;;;;;10280502;28;20416;-85
2022/07/27 00:56:00;;;;;;;3.63;2.30;;;;;;;;;;10279731;28;20491;-84
2022/07/27 01:01:02;;;;;;;3.08;2.78;;;;;;;;;;10280670;28;20418;-84
2022/07/27 01:06:04;;;;;;;2.75;2.45;;;;;;;;;;10279213;28;20405;-85
2022/07/27 01:11:08;;;;;;;2.83;2.23;;;;;;;;;;10279617;28;20852;-84
2022/07/27 01:16:10;;;;;;;2.42;2.10;;;;;;;;;;10278451;28;20871;-84
2022/07/27 01:21:11;;;;;;;2.85;2.28;;;;;;;;;;10275111;28;20407;-85
2022/07/27 01:26:15;;;;;;;2.75;2.40;;;;;;;;;;10224049;23;20516;-90
2022/07/27 01:31:17;;;;;;;2.40;2.20;;;;;;;;;;10202595;29;20428;-90
2022/07/27 01:36:19;;;;;;;3.95;2.35;;;;;;;;;;10195877;29;20411;-91
2022/07/27 01:41:22;;;;;;;3.90;2.70;;;;;;;;;;10197314;29;20507;-91
2022/07/27 01:46:24;;;;;;;3.00;2.33;;;;;;;;;;10202552;29;20446;-91
2022/07/27 01:51:26;;;;;;;2.60;2.40;;;;;;;;;;10200663;29;20422;-90
2022/07/27 01:56:29;;;;;;;3.63;2.58;;;;;;;;;;10202409;29;20452;-90
2022/07/27 02:01:31;;;;;;;2.80;2.35;;;;;;;;;;10197030;29;20782;-91
2022/07/27 02:06:33;;;;;;;3.95;2.50;;;;;;;;;;10201167;29;20501;-91
2022/07/27 02:16:56;;;;;;;3.42;2.30;;;;;;;;;;10195378;29;20394;-91
2022/07/27 02:21:58;;;;;;;3.30;2.53;;;;;;;;;;10200558;29;20449;-90
2022/07/27 02:27:01;;;;;;;2.90;2.50;;;;;;;;;;10236355;28;20416;-90
2022/07/27 02:32:03;;;;;;;2.77;2.43;;;;;;;;;;10237705;28;20448;-90
2022/07/27 02:37:05;;;;;;;2.57;2.37;;;;;;;;;;10241152;28;20430;-91
2022/07/27 02:42:09;;;;;;;2.80;2.30;;;;;;;;;;10241012;28;20451;-91
2022/07/27 02:47:11;;;;;;;4.13;2.30;;;;;;;;;;10239675;28;20467;-92
2022/07/27 02:52:13;;;;;;;3.53;2.63;;;;;;;;;;10239071;28;20508;-91
2022/07/27 02:57:17;;;;;;;3.53;2.65;;;;;;;;;;10231155;28;20447;-90
2022/07/27 03:02:19;;;;;;;2.65;2.25;;;;;;;;;;10220732;28;20414;-91
2022/07/27 03:07:21;;;;;;;3.78;2.20;;;;;;;;;;10237982;28;20487;-92
2022/07/27 03:12:24;;;;;;;3.30;2.70;;;;;;;;;;10239996;28;20424;-91
2022/07/27 03:17:26;;;;;;;2.78;2.40;;;;;;;;;;10235568;28;20423;-90
2022/07/27 03:22:29;;;;;;;6.28;3.60;;;;;;;;;;10233755;28;20424;-92
2022/07/27 03:27:32;;;;;;;5.47;3.53;;;;;;;;;;10231845;28;20416;-91
2022/07/27 03:32:34;;;;;;;5.68;3.40;;;;;;;;;;10235204;28;20506;-91
2022/07/27 03:37:36;;;;;;;10.63;3.53;;;;;;;;;;10237232;28;20904;-91
2022/07/27 03:42:40;;;;;;;5.83;3.30;;;;;;;;;;10235283;28;20416;-90
2022/07/27 03:47:45;;;;;;;6.15;3.15;;;;;;;;;;10237712;28;20499;-91
2022/07/27 03:52:47;;;;;;;6.53;3.20;;;;;;;;;;10234178;28;20574;-90
2022/07/27 03:57:51;;;;;;;9.35;3.22;;;;;;;;;;10238135;28;20426;-91
2022/07/27 04:02:53;;;;;;;4.25;3.00;;;;;;;;;;10220452;28;20407;-89
2022/07/27 04:07:54;;;;;;;4.22;2.75;;;;;;;;;;10231688;28;20780;-92
2022/07/27 04:12:58;;;;;;;4.77;3.00;;;;;;;;;;10234992;28;20511;-90
2022/07/27 04:18:00;;;;;;;3.90;2.92;;;;;;;;;;10206524;28;20422;-90
2022/07/27 04:23:05;;;;;;;6.90;2.97;;;;;;;;;;10243587;28;20423;-90
2022/07/27 04:28:08;;;;;;;6.43;3.00;;;;;;;;;;10243821;28;20448;-92
2022/07/27 04:33:10;;;;;;;4.90;2.97;;;;;;;;;;10242737;28;20519;-91
2022/07/27 04:38:11;;;;;;;4.40;2.95;;;;;;;;;;10244153;28;20838;-91
2022/07/27 04:43:15;;;;;;;3.63;2.42;;;;;;;;;;10240158;28;20439;-90
2022/07/27 04:48:17;;;;;;;3.40;2.60;;;;;;;;;;10242878;28;20495;-91
2022/07/27 04:53:19;;;;;;;4.00;2.83;;;;;;;;;;10239344;28;20527;-91
2022/07/27 04:58:23;;;;;;;5.95;3.10;;;;;;;;;;10236669;28;20535;-91
2022/07/27 05:03:25;;;;;;;5.10;2.90;;;;;;;;;;10244858;28;20446;-90
2022/07/27 05:08:27;;;;;;;6.37;2.80;;;;;;;;;;10262005;28;20415;-92
2022/07/27 05:13:30;;;;;;;4.05;3.13;;;;;;;;;;10263514;28;20812;-92
2022/07/27 05:18:32;;;;;;;4.90;3.37;;;;;;;;;;10241642;29;20495;-94
2022/07/27 05:23:34;;;;;;;7.07;3.93;;;;;;;;;;10245766;28;20450;-95
2022/07/27 05:28:38;;;;;;;6.55;3.40;;;;;;;;;;10270407;28;20711;-93
2022/07/27 05:33:40;;;;;;;4.10;3.13;;;;;;;;;;10249851;29;20428;-94
2022/07/27 05:38:42;;;;;;;5.45;3.50;;;;;;;;;;10241890;28;20451;-94
2022/07/27 05:43:45;;;;;;;4.88;3.03;;;;;;;;;;10243754;28;20423;-94
2022/07/27 05:48:47;;;;;;;5.68;3.10;;;;;;;;;;10243680;29;20443;-94
2022/07/27 05:53:49;;;;;;;7.05;3.30;;;;;;;;;;10239492;28;20522;-95
2022/07/27 05:58:52;;;;;;;4.40;3.42;;;;;;;;;;10241680;29;20496;-95
2022/07/27 06:03:54;;;;;;;5.20;3.40;;;;;;;;;;10242505;28;20897;-95
2022/07/27 06:08:56;;;;;;;6.63;3.75;;;;;;;;;;10240006;28;20976;-94
2022/07/27 06:13:59;;;;;;;4.88;3.13;;;;;;;;;;10240711;29;20495;-95
2022/07/27 06:19:01;;;;;;;5.53;3.40;;;;;;;;;;10242894;29;20967;-95
2022/07/27 06:24:04;;;;;;;4.25;3.42;;;;;;;;;;10241585;28;20872;-96
2022/07/27 06:29:08;;;;;;;5.30;3.20;;;;;;;;;;10244055;29;20416;-95
2022/07/27 06:34:10;;;;;;;5.73;3.30;;;;;;;;;;10244051;28;20432;-96
2022/07/27 06:39:13;;;;;;;4.28;2.67;;;;;;;;;;10244927;28;20420;-95
2022/07/27 06:44:16;;;;;;;4.43;2.92;;;;;;;;;;10237508;29;20418;-95
2022/07/27 06:49:19;;;;;;;3.53;2.85;;;;;;;;;;10260031;29;20444;-96
2022/07/27 06:54:21;;;;;;;5.60;2.95;;;;;;;;;;10251607;28;20423;-94
2022/07/27 07:04:42;;;;;;;4.63;2.80;;;;;;;;;;10238019;28;20442;-95
2022/07/27 07:09:44;;;;;;;3.33;2.70;;;;;;;;;;10227326;28;20455;-95
2022/07/27 07:14:47;;;;;;;2.80;2.47;;;;;;;;;;10241418;29;20483;-95
2022/07/27 07:19:49;;;;;;;3.30;2.80;;;;;;;;;;10236479;28;20819;-94
2022/07/27 07:24:51;;;;;;;2.90;2.53;;;;;;;;;;10236107;28;20447;-94
2022/07/27 07:29:55;;;;;;;4.28;2.40;;;;;;;;;;10240550;29;20420;-94
2022/07/27 07:34:57;;;;;;;5.07;2.80;;;;;;;;;;10238149;29;20466;-96
2022/07/27 07:39:59;;;;;;;3.33;2.60;;;;;;;;;;10237503;29;20412;-96
2022/07/27 07:45:04;;;;;;;3.92;2.38;;;;;;;;;;10240479;28;20552;-96
2022/07/27 07:50:09;;;;;;;4.15;2.53;;;;;;;;;;10246096;28;20483;-95
2022/07/27 07:55:11;;;;;;;4.47;2.45;;;;;;;;;;10248541;28;20463;-95
2022/07/27 08:00:16;;;;;;;3.28;2.50;;;;;;;;;;10246978;29;20498;-96
2022/07/27 08:05:19;;;;;;;2.88;2.50;;;;;;;;;;10239090;29;20457;-95
2022/07/27 08:10:23;;;;;;;7.40;2.70;;;;;;;;;;10245490;28;20451;-94
2022/07/27 08:15:27;;;;;;;4.70;2.60;;;;;;;;;;10238976;29;20837;-95
2022/07/27 08:20:29;;;;;;;3.20;2.60;;;;;;;;;;10244710;28;20412;-95
2022/07/27 08:25:31;;;;;;;6.00;2.65;;;;;;;;;;10240374;28;20801;-94
2022/07/27 08:30:39;;;;;;;4.45;2.50;;;;;;;;;;10240389;29;20424;-96
2022/07/27 08:35:41;;;;;;;4.22;2.63;;;;;;;;;;10243626;29;20427;-96
2022/07/27 08:40:43;;;;;;;6.10;2.58;;;;;;;;;;10235317;28;20835;-96
2022/07/27 08:45:53;;;;;;;3.43;2.63;;;;;;;;;;10241595;28;20415;-94
2022/07/27 08:50:56;;;;;;;4.25;2.60;;;;;;;;;;10241959;28;20412;-96
2022/07/27 08:55:58;;;;;;;4.03;2.88;;;;;;;;;;10238653;28;20423;-95
2022/07/27 09:01:01;;;;;;;4.75;3.00;;;;;;;;;;10235059;28;20404;-93
2022/07/27 09:06:03;;;;;;;2.83;2.63;;;;;;;;;;10236567;29;20439;-96
2022/07/27 09:11:14;;;;;;;4.32;3.10;;;;;;;;;;10237734;28;20416;-95
2022/07/27 09:16:17;;;;;;;4.57;2.83;;;;;;;;;;10240952;29;20431;-96
2022/07/27 09:21:24;;;;;;;4.60;2.80;;;;;;;;;;10241238;29;20897;-96
2022/07/27 09:26:27;;;;;;;4.35;2.88;;;;;;;;;;10227944;28;20965;-95
2022/07/27 09:31:32;;;;;;;4.22;2.90;;;;;;;;;;10229392;28;20870;-94
2022/07/27 09:36:34;;;;;;;5.07;2.70;;;;;;;;;;10241556;28;20436;-95
2022/07/27 09:41:43;;;;;;;4.70;3.05;;;;;;;;;;10253295;28;20427;-95
2022/07/27 09:46:47;;;;;;;4.90;3.00;;;;;;;;;;10243899;28;20449;-94
2022/07/27 09:51:49;;;;;;;5.73;2.77;;;;;;;;;;10244947;28;20449;-94
2022/07/27 09:57:00;;;;;;;4.00;3.05;;;;;;;;;;10254397;28;20884;-94
2022/07/27 10:02:03;;;;;;;4.55;3.00;;;;;;;;;;10240914;28;20424;-94
2022/07/27 10:07:06;;;;;;;4.45;3.03;;;;;;;;;;10242041;28;20459;-94
2022/07/27 10:12:08;;;;;;;4.70;3.00;;;;;;;;;;10239931;28;20491;-94
2022/07/27 10:17:13;;;;;;;4.82;3.17;;;;;;;;;;10231705;28;20708;-95
2022/07/27 10:22:15;;;;;;;5.90;3.20;;;;;;;;;;10244647;28;20443;-94
2022/07/27 10:27:26;;;;;;;4.63;3.05;;;;;;;;;;10258483;28;20471;-95
2022/07/27 10:32:32;;;;;;;3.08;2.78;;;;;;;;;;10243320;28;20422;-95
2022/07/27 10:37:35;;;;;;;3.15;2.85;;;;;;;;;;10246834;28;20463;-96
2022/07/27 10:42:38;;;;;;;4.75;3.05;;;;;;;;;;10246948;28;20416;-94
2022/07/27 10:47:45;;;;;;;4.05;2.78;;;;;;;;;;10279894;28;20525;-95
2022/07/27 10:52:49;;;;;;;4.23;2.97;;;;;;;;;;10262539;28;20420;-96
2022/07/27 10:57:51;;;;;;;3.72;2.60;;;;;;;;;;10238762;28;20518;-96
2022/07/27 11:02:56;;;;;;;3.83;2.70;;;;;;;;;;10244199;28;20550;-95
2022/07/27 11:07:58;;;;;;;2.97;2.67;;;;;;;;;;10241577;28;20519;-96
2022/07/27 11:13:05;;;;;;;4.63;2.87;;;;;;;;;;10238222;28;22147;-96
2022/07/27 11:18:08;;;;;;;2.80;2.60;;;;;;;;;;10238638;28;20460;-96
2022/07/27 11:23:18;;;;;;;3.38;3.00;;;;;;;;;;10244618;28;20424;-96
2022/07/27 11:28:36;;;;;;;3.50;3.10;;;;;;;;;;10248535;28;20420;-96
2022/07/27 11:33:50;;;;;;;2.83;2.53;;;;;;;;;;10238804;29;20427;-95
2022/07/27 11:38:54;;;;;;;4.53;2.75;;;;;;;;;;10240109;28;20455;-96
2022/07/27 11:44:00;;;;;;;3.73;2.90;;;;;;;;;;10236389;29;20420;-95
2022/07/27 11:49:06;;;;;;;3.58;2.80;;;;;;;;;;10232766;28;20433;-95
2022/07/27 11:54:10;;;;;;;3.33;2.90;;;;;;;;;;10245181;28;20420;-95
2022/07/27 11:59:15;;;;;;;3.20;2.47;;;;;;;;;;10238035;28;20479;-95
2022/07/27 12:04:24;;;;;;;3.40;3.10;;;;;;;;;;10235288;28;20425;-95
2022/07/27 12:09:27;;;;;;;4.47;2.75;;;;;;;;;;10237100;28;20445;-95
2022/07/27 12:14:36;;;;;;;3.80;2.63;;;;;;;;;;10238178;28;20448;-95
2022/07/27 12:19:40;;;;;;;3.50;2.70;;;;;;;;;;10237995;28;20860;-95
2022/07/27 12:24:43;;;;;;;2.80;2.50;;;;;;;;;;10235764;28;20426;-96
2022/07/27 12:30:08;;;;;;;3.10;2.80;;;;;;;;;;10233783;28;20424;-96
2022/07/27 12:35:22;;;;;;;3.55;2.90;;;;;;;;;;10239751;28;20911;-96
2022/07/27 12:40:26;;;;;;;4.57;2.70;;;;;;;;;;10246672;29;20419;-96
2022/07/27 12:45:34;;;;;;;4.68;2.95;;;;;;;;;;10258315;28;20405;-96
2022/07/27 12:50:41;;;;;;;5.75;2.70;;;;;;;;;;10289761;28;20396;-96
2022/07/27 12:55:44;;;;;;;7.73;7.00;;;;;;;;;;10293400;28;20443;-95
2022/07/27 13:00:46;;;;;;;9.63;7.95;;;;;;;;;;10292920;28;20408;-95
2022/07/27 13:05:50;;;;;;;4.20;2.80;;;;;;;;;;10288792;28;20413;-96
2022/07/27 13:10:52;;;;;;;4.50;2.90;;;;;;;;;;10273246;28;20412;-96
2022/07/27 13:15:54;;;;;;;3.50;2.93;;;;;;;;;;10267752;28;20433;-96
2022/07/27 13:20:58;;;;;;;3.33;2.67;;;;;;;;;;10250742;28;20435;-96
2022/07/27 13:26:00;;;;;;;3.35;2.80;;;;;;;;;;10248770;29;20794;-96
2022/07/27 13:31:02;;;;;;;3.85;2.80;;;;;;;;;;10244330;28;20424;-96
2022/07/27 13:36:08;;;;;;;2.87;2.67;;;;;;;;;;10256313;28;20940;-96
2022/07/27 13:41:10;;;;;;;3.80;2.83;;;;;;;;;;10239886;28;20771;-96
2022/07/27 13:46:12;;;;;;;3.47;2.83;;;;;;;;;;10246848;28;20784;-96
2022/07/27 13:51:16;;;;;;;3.27;2.97;;;;;;;;;;10244423;28;20424;-96
2022/07/27 13:56:18;;;;;;;3.00;2.80;;;;;;;;;;10245620;28;20486;-96
2022/07/27 14:01:20;;;;;;;3.25;2.95;;;;;;;;;;10241527;28;20483;-96
2022/07/27 14:06:23;;;;;;;3.93;2.97;;;;;;;;;;10266033;28;20420;-96
2022/07/27 14:11:25;;;;;;;3.13;2.70;;;;;;;;;;10251340;28;20531;-96
2022/07/27 14:16:27;;;;;;;3.22;2.83;;;;;;;;;;10254552;28;20424;-96
2022/07/27 14:21:31;;;;;;;3.72;3.00;;;;;;;;;;10238142;29;20424;-96
2022/07/27 14:26:33;;;;;;;3.10;2.80;;;;;;;;;;10247583;29;20455;-96
2022/07/27 14:31:35;;;;;;;2.90;2.70;;;;;;;;;;10248454;28;20418;-96
2022/07/27 14:36:39;;;;;;;3.97;2.80;;;;;;;;;;10250153;28;20515;-96
2022/07/27 14:41:41;;;;;;;4.18;2.80;;;;;;;;;;10238500;28;20414;-96
2022/07/27 14:46:43;;;;;;;3.85;2.90;;;;;;;;;;10234194;28;20420;-95
2022/07/27 14:51:47;;;;;;;3.35;2.65;;;;;;;;;;10241067;28;20495;-96
2022/07/27 14:56:49;;;;;;;5.43;3.00;;;;;;;;;;10227173;28;20523;-95
2022/07/27 15:01:51;;;;;;;4.35;2.80;;;;;;;;;;10232052;28;20534;-95
2022/07/27 15:06:56;;;;;;;4.30;2.97;;;;;;;;;;10222967;28;20479;-96
2022/07/27 15:11:58;;;;;;;3.33;2.70;;;;;;;;;;10226070;28;20835;-96
2022/07/27 15:17:00;;;;;;;3.95;2.60;;;;;;;;;;10232065;28;20449;-96
2022/07/27 15:22:04;;;;;;;2.72;2.42;;;;;;;;;;10241334;28;20529;-96
2022/07/27 15:27:06;;;;;;;3.57;2.53;;;;;;;;;;10241472;28;20436;-96
2022/07/27 15:32:11;;;;;;;6.15;5.07;;;;;;;;;;10255996;28;20416;-95
2022/07/27 15:37:15;;;;;;;3.70;2.60;;;;;;;;;;10232151;28;20508;-95
2022/07/27 15:42:17;;;;;;;3.83;2.58;;;;;;;;;;10228998;29;20424;-96
2022/07/27 15:47:19;;;;;;;3.70;2.53;;;;;;;;;;10230505;28;20479;-96
2022/07/27 15:52:22;;;;;;;3.08;2.72;;;;;;;;;;10230038;28;20446;-94
2022/07/27 15:57:24;;;;;;;3.80;2.73;;;;;;;;;;10231962;28;20492;-95
2022/07/27 16:02:27;;;;;;;3.10;2.78;;;;;;;;;;10225380;28;20962;-96
2022/07/27 16:07:31;;;;;;;3.13;2.83;;;;;;;;;;10248577;28;20802;-96
2022/07/27 16:12:35;;;;;;;3.00;2.75;;;;;;;;;;10247562;28;20979;-95
2022/07/27 16:17:37;;;;;;;3.33;3.03;;;;;;;;;;10240546;28;20424;-96
2022/07/27 16:22:42;;;;;;;3.28;2.92;;;;;;;;;;10242691;28;20560;-95
2022/07/27 16:27:44;;;;;;;3.95;2.97;;;;;;;;;;10238079;28;20786;-95
2022/07/27 16:32:46;;;;;;;3.92;3.17;;;;;;;;;;10244306;28;20561;-95
2022/07/27 16:37:50;;;;;;;3.33;3.00;;;;;;;;;;10232742;28;20534;-95
2022/07/27 16:42:52;;;;;;;4.23;2.90;;;;;;;;;;10244238;28;20503;-96
2022/07/27 16:47:54;;;;;;;3.53;3.22;;;;;;;;;;10243391;28;21338;-94
2022/07/27 16:53:00;;;;;;;3.28;3.00;;;;;;;;;;10226988;28;20451;-94
2022/07/27 16:58:02;;;;;;;3.67;3.00;;;;;;;;;;10238370;28;20785;-95
2022/07/27 17:03:05;;;;;;;4.90;3.00;;;;;;;;;;10240131;28;20812;-96
2022/07/27 17:08:09;;;;;;;3.23;2.93;;;;;;;;;;10242773;28;20420;-96
2022/07/27 17:13:11;;;;;;;3.60;2.90;;;;;;;;;;10245322;28;20976;-96
2022/07/27 17:18:21;;;;;;;5.70;3.17;;;;;;;;;;10240950;28;20973;-92
2022/07/27 17:23:37;;;;;;;4.32;3.45;;;;;;;;;;10996467;23;20544;-95
2022/07/27 17:28:40;;;;;;;4.18;2.88;;;;;;;;;;10285450;28;20997;-94
2022/07/27 17:33:42;;;;;;;3.92;3.30;;;;;;;;;;10286513;28;20494;-93
2022/07/27 17:38:46;;;;;;;3.43;2.83;;;;;;;;;;10295005;28;20430;-94
2022/07/27 17:43:48;;;;;;;4.37;3.30;;;;;;;;;;10281665;28;20478;-93
2022/07/27 17:48:51;;;;;;;4.07;3.25;;;;;;;;;;10290714;28;20414;-95
2022/07/27 17:53:54;;;;;;;5.10;3.30;;;;;;;;;;10279233;28;20441;-93
2022/07/27 17:58:57;;;;;;;4.27;3.30;;;;;;;;;;10279048;28;20955;-94
2022/07/27 18:03:59;;;;;;;3.80;3.08;;;;;;;;;;10281103;28;21084;-94
2022/07/27 18:09:02;;;;;;;3.50;3.10;;;;;;;;;;10278729;28;20445;-95
2022/07/27 18:14:04;;;;;;;4.78;3.30;;;;;;;;;;10279011;28;20419;-95
2022/07/27 18:19:06;;;;;;;3.72;3.00;;;;;;;;;;10279316;28;20505;-94
2022/07/27 18:24:10;;;;;;;3.58;2.97;;;;;;;;;;10279103;28;20429;-94
2022/07/27 18:29:13;;;;;;;4.25;3.20;;;;;;;;;;10279300;28;20405;-94
2022/07/27 18:34:16;;;;;;;4.32;3.25;;;;;;;;;;10286216;28;20413;-94
2022/07/27 18:39:19;;;;;;;5.13;3.38;;;;;;;;;;10279915;28;20803;-94
2022/07/27 18:44:21;;;;;;;4.70;3.53;;;;;;;;;;10281597;28;20493;-94
2022/07/27 18:49:23;;;;;;;4.93;3.45;;;;;;;;;;10273412;28;20556;-94
2022/07/27 18:54:27;;;;;;;3.50;3.20;;;;;;;;;;10271554;28;20541;-94
2022/07/27 18:59:29;;;;;;;3.70;3.00;;;;;;;;;;10275987;28;20433;-93
2022/07/27 19:04:32;;;;;;;3.70;3.20;;;;;;;;;;10280134;28;20414;-93
2022/07/27 19:09:35;;;;;;;4.35;3.08;;;;;;;;;;10281294;28;20418;-94
2022/07/27 19:14:38;;;;;;;4.13;3.57;;;;;;;;;;10279949;28;20418;-94
2022/07/27 19:19:40;;;;;;;4.67;3.23;;;;;;;;;;10277891;28;20820;-94
2022/07/27 19:24:43;;;;;;;5.00;3.15;;;;;;;;;;10273317;28;20848;-93
2022/07/27 19:29:45;;;;;;;5.80;3.40;;;;;;;;;;10277862;28;20450;-93
2022/07/27 19:34:47;;;;;;;4.93;3.33;;;;;;;;;;10279241;28;20509;-92
2022/07/27 19:39:51;;;;;;;6.27;3.33;;;;;;;;;;10279320;28;20911;-94
2022/07/27 19:44:54;;;;;;;5.00;3.38;;;;;;;;;;10278488;28;20465;-95
2022/07/27 19:49:56;;;;;;;4.30;3.40;;;;;;;;;;10278638;28;20406;-95
2022/07/27 19:55:00;;;;;;;4.03;3.45;;;;;;;;;;10278087;28;20414;-94
2022/07/27 20:00:04;;;;;;;3.70;3.33;;;;;;;;;;10278603;28;20509;-94
2022/07/27 20:05:07;;;;;;;6.00;3.30;;;;;;;;;;10276136;28;20414;-95
2022/07/27 20:10:11;;;;;;;8.57;4.07;;;;;;;;;;10276468;28;20450;-94
2022/07/27 20:15:13;;;;;;;4.53;3.63;;;;;;;;;;10277097;28;20454;-94
2022/07/27 20:20:15;;;;;;;6.65;3.90;;;;;;;;;;10275944;28;20493;-95
2022/07/27 20:25:18;;;;;;;5.45;3.75;;;;;;;;;;10276575;28;20811;-95
2022/07/27 20:30:22;;;;;;;5.70;3.70;;;;;;;;;;10275216;28;20407;-94
2022/07/27 20:35:24;;;;;;;5.47;3.55;;;;;;;;;;10273016;28;20441;-94
2022/07/27 20:40:27;;;;;;;5.83;3.40;;;;;;;;;;10301636;28;20432;-92
2022/07/27 20:45:29;;;;;;;4.17;3.50;;;;;;;;;;10299180;28;20434;-93
2022/07/27 20:50:31;;;;;;;4.53;3.33;;;;;;;;;;10301531;28;20415;-94
2022/07/27 20:55:35;;;;;;;4.55;3.20;;;;;;;;;;10301597;28;20418;-93
2022/07/27 21:00:37;;;;;;;3.93;3.27;;;;;;;;;;10279201;28;20929;-92
2022/07/27 21:05:39;;;;;;;4.43;3.50;;;;;;;;;;10286712;28;20473;-92
2022/07/27 21:10:42;;;;;;;3.47;3.17;;;;;;;;;;10286989;28;20970;-93
2022/07/27 21:15:44;;;;;;;3.47;2.80;;;;;;;;;;10281848;28;20517;-94
2022/07/27 21:20:47;;;;;;;3.15;2.85;;;;;;;;;;10286385;28;20411;-93
2022/07/27 21:25:50;;;;;;;4.20;3.13;;;;;;;;;;10299232;28;20407;-93
2022/07/27 21:30:52;;;;;;;3.57;3.23;;;;;;;;;;10272967;28;20499;-93
2022/07/27 21:35:54;;;;;;;3.55;3.20;;;;;;;;;;10280949;28;20410;-94
2022/07/27 21:40:57;;;;;;;3.75;3.33;;;;;;;;;;10285290;28;20441;-92
2022/07/27 21:45:59;;;;;;;3.87;3.00;;;;;;;;;;10284218;28;20462;-92
2022/07/27 21:51:01;;;;;;;4.70;3.17;;;;;;;;;;10282947;28;20506;-91
2022/07/27 21:56:05;;;;;;;3.90;3.00;;;;;;;;;;10280169;28;20416;-91
2022/07/27 22:01:07;;;;;;;4.55;3.08;;;;;;;;;;10282582;28;20403;-91
2022/07/27 22:06:09;;;;;;;3.28;2.97;;;;;;;;;;10279945;28;20426;-91
2022/07/27 22:11:13;;;;;;;4.03;2.78;;;;;;;;;;10257007;28;20411;-91
2022/07/27 22:16:15;;;;;;;3.30;2.90;;;;;;;;;;10278726;28;20430;-91
2022/07/27 22:21:17;;;;;;;4.30;3.10;;;;;;;;;;10280946;28;20889;-93
2022/07/27 22:26:22;;;;;;;3.67;2.80;;;;;;;;;;10285706;28;20426;-92
2022/07/27 22:31:24;;;;;;;5.53;2.90;;;;;;;;;;10285407;28;20474;-92
2022/07/27 22:36:26;;;;;;;3.35;2.92;;;;;;;;;;10285875;28;20465;-92
2022/07/27 22:41:29;;;;;;;3.42;3.10;;;;;;;;;;10280793;28;20403;-92
2022/07/27 22:46:32;;;;;;;3.65;3.35;;;;;;;;;;10286135;28;20441;-92
2022/07/27 22:51:34;;;;;;;4.10;3.10;;;;;;;;;;10258844;28;20410;-92
2022/07/27 22:56:37;;;;;;;3.40;3.10;;;;;;;;;;10292027;28;20457;-91
2022/07/27 23:01:39;;;;;;;4.40;3.17;;;;;;;;;;10289346;28;20414;-91
2022/07/27 23:06:41;;;;;;;3.30;3.00;;;;;;;;;;10289798;28;20509;-92
2022/07/27 23:11:54;;;;;;;3.10;2.70;;;;;;;;;;10275739;28;20481;-93
2022/07/27 23:16:56;;;;;;;3.72;2.83;;;;;;;;;;10283670;28;20521;-91
2022/07/27 23:21:58;;;;;;;2.97;2.70;;;;;;;;;;10277545;28;20437;-94
2022/07/27 23:27:01;;;;;;;3.22;2.92;;;;;;;;;;10279244;28;20434;-92
2022/07/27 23:32:04;;;;;;;3.80;2.90;;;;;;;;;;10281227;28;20406;-94
2022/07/27 23:37:06;;;;;;;2.70;2.50;;;;;;;;;;10280856;28;20461;-93
2022/07/27 23:42:10;;;;;;;3.13;2.63;;;;;;;;;;10275992;28;20489;-94
2022/07/27 23:47:11;;;;;;;2.65;2.33;;;;;;;;;;10281653;28;20414;-93
2022/07/27 23:52:14;;;;;;;2.53;2.33;;;;;;;;;;10286424;28;20912;-92
2022/07/27 23:57:18;;;;;;;3.10;2.50;;;;;;;;;;10278230;28;20514;-92
